EDDH/HAM METAR and TAF weather

Enter ICAO airport designator
Station Type Date Time Source
EDDH METAR 2017/12/15 09:50 UTC NOAA

EDDH 150950Z 24004KT 210V270 8000 FEW012 BKN240 03/01 Q0994 NOSIG


Station Type Date Time Source
EDDH Decoded METAR 2017/12/15 09:50 UTC NOAA

Hamburg-Fuhlsbuettel, Germany (EDDH) 53-38N 010-00E 15M
Dec 15, 2017 - 04:50 AM EST / 2017.12.15 0950 UTC
Wind: from the WSW (240 degrees) at 5 MPH (4 KT) (direction variable):0
Visibility: 4 mile(s):0
Sky conditions: mostly cloudy
Temperature: 37 F (3 C)
Dew Point: 33 F (1 C)
Relative Humidity: 86%
Pressure (altimeter): 29.35 in. Hg (0994 hPa)
ob: EDDH 150950Z 24004KT 210V270 8000 FEW012 BKN240 03/01 Q0994 NOSIG
cycle: 10

Station Type Date Time Source
EDDH TAF 2017/12/15 06:27 UTC NOAA

TAF EDDH 150500Z 1506/1612 24006KT 9999 BKN025
TEMPO 1507/1512 BKN012
TEMPO 1521/1606 BKN012


Example: see airport list